Time;durP1;ratioP1;P1;durP2;ratioP2;P2;SDS_P1;SDS_P2;PMS_P1;PMS_P2;Temp;Humidity;BMP_temperature;BMP_pressure;BME280_temperature;BME280_humidity;BME280_pressure;Samples;Min_cycle;Max_cycle;Signal;HPM_P1;HPM_P2
2021/10/17 00:02:04;;;;;;;;;;;10.70;99.90;;;;;;8323201;28;20351;-72
2021/10/17 00:06:05;;;;;;;;;;;10.70;99.90;;;;;;8328409;28;19920;-72
2021/10/17 00:10:09;;;;;;;;;;;10.70;99.90;;;;;;8333038;28;19921;-72
2021/10/17 00:14:11;;;;;;;;;;;10.70;99.90;;;;;;8323574;28;20285;-72
2021/10/17 00:18:13;;;;;;;;;;;10.60;99.90;;;;;;8322143;28;20316;-72
2021/10/17 00:22:15;;;;;;;;;;;10.60;99.90;;;;;;8318774;28;20359;-72
2021/10/17 00:26:16;;;;;;;;;;;10.50;99.90;;;;;;8329157;28;20258;-72
2021/10/17 00:30:18;;;;;;;;;;;10.40;99.90;;;;;;8320089;28;19945;-73
2021/10/17 00:34:20;;;;;;;;;;;10.40;99.90;;;;;;8330665;28;19979;-72
2021/10/17 00:38:21;;;;;;;;;;;10.40;99.90;;;;;;8326571;28;19921;-72
2021/10/17 00:42:24;;;;;;;;;;;10.40;99.90;;;;;;8328124;28;19932;-72
2021/10/17 00:46:25;;;;;;;;;;;10.40;99.90;;;;;;8333275;28;19928;-72
2021/10/17 00:50:27;;;;;;;;;;;10.40;99.90;;;;;;8324066;28;19921;-73
2021/10/17 00:54:29;;;;;;;;;;;10.50;99.90;;;;;;8326390;28;19921;-73
2021/10/17 00:58:31;;;;;;;;;;;10.60;99.90;;;;;;8324596;28;19921;-73
2021/10/17 01:02:32;;;;;;;;;;;10.60;99.90;;;;;;8326521;28;20087;-73
2021/10/17 01:06:35;;;;;;;;;;;10.70;99.90;;;;;;8326291;28;19975;-72
2021/10/17 01:10:36;;;;;;;;;;;10.60;99.90;;;;;;8322686;28;19921;-72
2021/10/17 01:14:38;;;;;;;;;;;10.60;99.90;;;;;;8319244;28;19920;-73
2021/10/17 01:18:40;;;;;;;;;;;10.50;99.90;;;;;;8340100;28;20029;-72
2021/10/17 01:22:42;;;;;;;;;;;10.40;99.90;;;;;;8320485;28;20008;-72
2021/10/17 01:26:44;;;;;;;;;;;10.30;99.90;;;;;;8324521;28;20288;-72
2021/10/17 01:30:46;;;;;;;;;;;10.20;99.90;;;;;;8330231;28;19947;-72
2021/10/17 01:34:48;;;;;;;;;;;10.30;99.90;;;;;;8335524;28;19921;-72
2021/10/17 01:38:49;;;;;;;;;;;10.30;99.90;;;;;;8319862;28;19925;-72
2021/10/17 01:42:51;;;;;;;;;;;10.30;99.90;;;;;;8312866;28;19990;-72
2021/10/17 01:46:53;;;;;;;;;;;10.30;99.90;;;;;;8326652;28;20435;-72
2021/10/17 01:50:55;;;;;;;;;;;10.30;99.90;;;;;;8352667;28;19928;-72
2021/10/17 01:54:56;;;;;;;;;;;10.20;99.90;;;;;;8322787;28;19928;-72
2021/10/17 01:58:58;;;;;;;;;;;10.10;99.90;;;;;;8345853;28;19925;-72
2021/10/17 02:02:59;;;;;;;;;;;10.00;99.90;;;;;;8332241;28;19921;-72
2021/10/17 02:07:01;;;;;;;13.45;5.25;;;10.00;99.90;;;;;;8326226;28;20016;-72
2021/10/17 02:11:03;;;;;;;;;;;9.80;99.90;;;;;;8325501;28;20118;-72
2021/10/17 02:15:05;;;;;;;;;;;9.80;99.90;;;;;;8323609;28;19921;-72
2021/10/17 02:19:07;;;;;;;;;;;9.80;99.90;;;;;;8324096;28;19927;-73
2021/10/17 02:23:08;;;;;;;;;;;9.90;99.90;;;;;;8319414;28;19921;-73
2021/10/17 02:27:10;;;;;;;;;;;10.00;99.90;;;;;;8324855;28;19928;-72
2021/10/17 02:31:12;;;;;;;;;;;10.10;99.90;;;;;;8326404;28;19921;-73
2021/10/17 02:35:13;;;;;;;;;;;10.10;99.90;;;;;;8347217;28;19925;-72
2021/10/17 02:39:15;;;;;;;;;;;10.10;99.90;;;;;;8340214;28;19921;-72
2021/10/17 02:43:17;;;;;;;;;;;10.10;99.90;;;;;;8325544;28;19929;-72
2021/10/17 02:47:18;;;;;;;;;;;10.10;99.90;;;;;;8325350;28;19929;-72
2021/10/17 02:51:20;;;;;;;;;;;10.10;99.90;;;;;;8326975;28;19941;-72
2021/10/17 02:55:21;;;;;;;;;;;10.00;99.90;;;;;;8333971;28;19921;-72
2021/10/17 02:59:23;;;;;;;;;;;10.10;99.90;;;;;;8329174;28;20369;-72
2021/10/17 03:03:25;;;;;;;;;;;10.00;99.90;;;;;;8338348;28;20066;-72
2021/10/17 03:07:26;;;;;;;;;;;10.10;99.90;;;;;;8327581;28;19955;-73
2021/10/17 03:11:28;;;;;;;;;;;10.10;99.90;;;;;;8327033;28;20264;-72
2021/10/17 03:15:30;;;;;;;;;;;10.10;99.90;;;;;;8351818;28;19947;-72
2021/10/17 03:19:32;;;;;;;;;;;10.00;99.90;;;;;;8319029;28;19949;-72
2021/10/17 03:23:33;;;;;;;;;;;10.00;99.90;;;;;;8320588;28;20272;-72
2021/10/17 03:27:35;;;;;;;;;;;9.90;99.90;;;;;;8338615;28;20365;-73
2021/10/17 03:31:38;;;;;;;;;;;9.90;99.90;;;;;;8320941;28;20254;-72
2021/10/17 03:35:40;;;;;;;;;;;9.80;99.90;;;;;;8323920;28;19929;-72
2021/10/17 03:39:42;;;;;;;;;;;9.80;99.90;;;;;;8323085;28;19920;-72
2021/10/17 03:43:43;;;;;;;;;;;9.80;99.90;;;;;;8321289;28;19924;-72
2021/10/17 03:47:45;;;;;;;;;;;9.70;99.90;;;;;;8322746;28;20276;-73
2021/10/17 03:51:47;;;;;;;;;;;9.60;99.90;;;;;;8319629;28;20386;-72
2021/10/17 03:55:48;;;;;;;;;;;9.70;99.90;;;;;;8319882;28;19920;-73
2021/10/17 03:59:50;;;;;;;;;;;9.60;99.90;;;;;;8325071;28;19921;-72
2021/10/17 04:03:52;;;;;;;;;;;9.70;99.90;;;;;;8321367;28;19958;-73
2021/10/17 04:07:53;;;;;;;;;;;9.70;99.90;;;;;;8323338;28;19928;-72
2021/10/17 04:11:55;;;;;;;;;;;9.70;99.90;;;;;;8321862;28;19928;-72
2021/10/17 04:15:56;;;;;;;;;;;9.70;99.90;;;;;;8318436;28;19968;-73
2021/10/17 04:19:58;;;;;;;;;;;9.70;99.90;;;;;;8317096;28;20001;-72
2021/10/17 04:24:00;;;;;;;;;;;9.60;99.90;;;;;;8313910;28;20396;-72
2021/10/17 04:28:02;;;;;;;;;;;9.60;99.90;;;;;;8321977;28;19925;-72
2021/10/17 04:32:04;;;;;;;;;;;9.70;99.90;;;;;;8321192;28;20475;-73
2021/10/17 04:36:06;;;;;;;;;;;9.70;99.90;;;;;;8316802;28;19921;-72
2021/10/17 04:40:08;;;;;;;;;;;9.70;99.90;;;;;;8349277;28;20327;-72
2021/10/17 04:44:09;;;;;;;;;;;9.70;99.90;;;;;;8316627;28;19921;-73
2021/10/17 04:48:12;;;;;;;;;;;9.70;99.90;;;;;;8317066;28;19928;-73
2021/10/17 04:52:13;;;;;;;;;;;9.70;99.90;;;;;;8316052;28;19928;-72
2021/10/17 04:56:15;;;;;;;;;;;9.70;99.90;;;;;;8318245;28;19920;-72
2021/10/17 05:00:17;;;;;;;;;;;9.80;99.90;;;;;;8319960;28;20204;-72
2021/10/17 05:04:18;;;;;;;;;;;9.80;99.90;;;;;;8317399;28;19925;-73
2021/10/17 05:08:20;;;;;;;;;;;9.80;99.90;;;;;;8315775;28;20343;-72
2021/10/17 05:12:22;;;;;;;;;;;9.80;99.90;;;;;;8317285;28;19946;-72
2021/10/17 05:16:24;;;;;;;;;;;9.80;99.90;;;;;;8343781;28;19925;-72
2021/10/17 05:20:25;;;;;;;;;;;9.90;99.90;;;;;;8317333;28;20435;-73
2021/10/17 05:24:27;;;;;;;;;;;9.90;99.90;;;;;;8302897;28;19929;-72
2021/10/17 05:28:29;;;;;;;;;;;9.90;99.90;;;;;;8300767;28;19921;-73
2021/10/17 05:32:31;;;;;;;;;;;9.80;99.90;;;;;;8311192;28;19925;-73
2021/10/17 05:36:34;;;;;;;;;;;9.90;99.90;;;;;;8294195;28;20343;-73
2021/10/17 05:40:36;;;;;;;;;;;9.90;99.90;;;;;;8294279;28;19921;-73
2021/10/17 05:44:38;;;;;;;;;;;9.90;99.90;;;;;;8302775;28;20380;-73
2021/10/17 05:48:39;;;;;;;;;;;9.90;99.90;;;;;;8307555;28;20066;-73
2021/10/17 05:52:41;;;;;;;;;;;9.90;99.90;;;;;;8290945;28;19929;-73
2021/10/17 05:56:43;;;;;;;;;;;9.90;99.90;;;;;;8291163;28;19952;-73
2021/10/17 06:00:44;;;;;;;;;;;9.80;99.90;;;;;;8304474;28;21130;-72
2021/10/17 06:04:46;;;;;;;;;;;9.80;99.90;;;;;;8299348;28;19929;-73
2021/10/17 06:08:47;;;;;;;;;;;9.80;99.90;;;;;;8299808;28;19935;-72
2021/10/17 06:12:49;;;;;;;;;;;9.80;99.90;;;;;;8311768;28;20380;-73
2021/10/17 06:16:51;;;;;;;;;;;9.80;99.90;;;;;;8337289;28;20278;-73
2021/10/17 06:20:53;;;;;;;;;;;9.80;99.90;;;;;;8332500;28;20007;-73
2021/10/17 06:24:55;;;;;;;;;;;9.80;99.90;;;;;;8310809;28;20020;-72
2021/10/17 06:28:56;;;;;;;;;;;9.80;99.90;;;;;;8315490;28;19976;-72
2021/10/17 06:32:58;;;;;;;;;;;9.80;99.90;;;;;;8308376;28;19921;-73
2021/10/17 06:37:00;;;;;;;;;;;9.80;99.90;;;;;;8310575;28;19929;-73
2021/10/17 06:41:02;;;;;;;;;;;9.80;99.90;;;;;;8317388;28;19991;-73
2021/10/17 06:45:04;;;;;;;;;;;9.80;99.90;;;;;;8324516;28;20395;-72
2021/10/17 06:49:06;;;;;;;;;;;9.90;99.90;;;;;;8324862;28;20407;-72
2021/10/17 06:53:08;;;;;;;;;;;9.80;99.90;;;;;;8322214;28;19921;-72
2021/10/17 06:57:09;;;;;;;;;;;9.80;99.90;;;;;;8293174;28;19951;-73
2021/10/17 07:01:11;;;;;;;;;;;9.80;99.90;;;;;;8291104;28;19925;-73
2021/10/17 07:05:13;;;;;;;;;;;9.80;99.90;;;;;;8313522;28;20297;-73
2021/10/17 07:09:15;;;;;;;;;;;9.80;99.90;;;;;;8311280;28;19929;-73
2021/10/17 07:13:17;;;;;;;;;;;9.70;99.90;;;;;;8292838;28;20280;-73
2021/10/17 07:17:19;;;;;;;;;;;9.80;99.90;;;;;;8300283;28;20393;-73
2021/10/17 07:21:21;;;;;;;;;;;9.80;99.90;;;;;;8297205;28;19921;-72
2021/10/17 07:25:23;;;;;;;;;;;9.80;99.90;;;;;;8310951;28;19944;-72
2021/10/17 07:29:25;;;;;;;;;;;9.80;99.90;;;;;;8315137;28;19983;-73
2021/10/17 07:33:27;;;;;;;;;;;9.90;99.90;;;;;;8318727;28;19921;-73
2021/10/17 07:37:28;;;;;;;;;;;9.90;99.90;;;;;;8319493;28;19925;-73
2021/10/17 07:41:30;;;;;;;;;;;9.90;99.90;;;;;;8315308;28;19929;-72
2021/10/17 07:45:32;;;;;;;;;;;9.90;99.90;;;;;;8319878;28;20258;-73
2021/10/17 07:49:34;;;;;;;;;;;9.90;99.90;;;;;;8349314;28;19925;-73
2021/10/17 07:53:35;;;;;;;;;;;9.90;99.90;;;;;;8302167;28;19925;-73
2021/10/17 07:57:47;;;;;;;;;;;10.00;99.90;;;;;;8316068;28;19937;-72
2021/10/17 08:01:50;;;;;;;;;;;10.00;99.90;;;;;;8312898;28;19936;-73
2021/10/17 08:05:51;;;;;;;;;;;10.00;99.90;;;;;;8312466;28;19930;-72
2021/10/17 08:09:53;;;;;;;;;;;10.10;99.90;;;;;;8316613;28;19967;-73
2021/10/17 08:13:55;;;;;;;;;;;10.10;99.90;;;;;;8312603;28;19921;-72
2021/10/17 08:17:56;;;;;;;;;;;10.10;99.90;;;;;;8318300;28;19925;-72
2021/10/17 08:21:58;;;;;;;;;;;10.10;99.90;;;;;;8311303;28;20457;-73
2021/10/17 08:26:00;;;;;;;;;;;10.20;99.90;;;;;;8310131;28;19925;-72
2021/10/17 08:30:04;;;;;;;15.80;8.20;;;10.20;99.90;;;;;;8316009;28;19960;-72
2021/10/17 08:34:06;;;;;;;;;;;10.30;99.90;;;;;;8341337;28;19920;-72
2021/10/17 08:38:08;;;;;;;;;;;10.30;99.90;;;;;;8348154;28;19921;-72
2021/10/17 08:42:10;;;;;;;;;;;10.30;99.90;;;;;;8298990;28;19927;-73
2021/10/17 08:46:35;;;;;;;;;;;10.40;99.90;;;;;;8302694;28;19936;-72
2021/10/17 08:50:37;;;;;;;;;;;10.40;99.90;;;;;;8302332;28;20003;-72
2021/10/17 08:54:39;;;;;;;;;;;10.50;99.90;;;;;;8332636;28;19929;-72
2021/10/17 08:58:41;;;;;;;;;;;10.50;99.90;;;;;;8301908;28;19924;-72
2021/10/17 09:02:43;;;;;;;;;;;10.50;99.90;;;;;;8296835;28;19929;-72
2021/10/17 09:06:47;;;;;;;;;;;10.60;99.90;;;;;;8330379;28;20431;-72
2021/10/17 09:10:49;;;;;;;;;;;10.60;99.90;;;;;;8296936;28;20605;-72
2021/10/17 09:14:51;;;;;;;;;;;10.70;99.90;;;;;;8300206;28;20780;-72
2021/10/17 09:19:11;;;;;;;;;;;10.70;99.90;;;;;;8299539;28;19921;-71
2021/10/17 09:23:13;;;;;;;;;;;10.80;99.90;;;;;;8299666;28;19925;-72
2021/10/17 09:27:25;;;;;;;;;;;10.80;99.90;;;;;;8310255;28;19920;-73
2021/10/17 09:31:26;;;;;;;;;;;10.90;99.90;;;;;;8340267;28;20361;-72
2021/10/17 09:35:30;;;;;;;;;;;10.90;99.90;;;;;;8320415;28;20328;-73
2021/10/17 09:39:34;;;;;;;;;;;10.90;99.90;;;;;;8318081;28;19931;-73
2021/10/17 09:43:36;;;;;;;;;;;11.00;99.90;;;;;;8311640;28;19945;-73
2021/10/17 09:47:39;;;;;;;;;;;11.00;99.90;;;;;;8313473;28;19975;-72
2021/10/17 09:51:40;;;;;;;15.50;9.82;;;11.10;99.90;;;;;;8314636;28;20759;-72
2021/10/17 09:55:52;;;;;;;14.30;7.93;;;11.10;99.90;;;;;;8310821;28;20045;-72
2021/10/17 09:59:54;;;;;;;;;;;11.30;99.90;;;;;;8304283;28;19925;-72
2021/10/17 10:03:57;;;;;;;;;;;11.40;99.90;;;;;;8308351;28;19976;-72
2021/10/17 10:08:03;;;;;;;;;;;11.50;99.90;;;;;;8311177;28;19921;-73
2021/10/17 10:12:06;;;;;;;;;;;11.60;99.90;;;;;;8312862;28;20001;-72
2021/10/17 10:16:07;;;;;;;;;;;11.70;99.90;;;;;;8312476;28;19925;-72
2021/10/17 10:20:10;;;;;;;;;;;11.70;99.90;;;;;;8326787;28;20262;-72
2021/10/17 10:24:12;;;;;;;;;;;11.80;99.90;;;;;;8312908;28;20391;-72
2021/10/17 10:28:15;;;;;;;15.07;9.25;;;11.90;99.90;;;;;;8311366;28;19921;-73
2021/10/17 10:32:22;;;;;;;16.40;9.07;;;11.90;99.90;;;;;;8328611;28;20060;-72
2021/10/17 10:36:37;;;;;;;;;;;12.00;99.90;;;;;;8308527;28;20037;-72
2021/10/17 10:40:38;;;;;;;;;;;12.20;99.90;;;;;;8315628;28;19928;-72
2021/10/17 10:44:40;;;;;;;;;;;12.40;99.90;;;;;;8317120;28;19921;-72
2021/10/17 10:48:46;;;;;;;;;;;12.80;99.90;;;;;;8323474;28;19924;-73
2021/10/17 10:52:47;;;;;;;;;;;13.00;99.90;;;;;;8322422;28;20281;-72
2021/10/17 10:56:49;;;;;;;;;;;13.10;99.90;;;;;;8319663;28;19928;-72
2021/10/17 11:00:52;;;;;;;;;;;13.20;99.90;;;;;;8321709;28;19928;-73
2021/10/17 11:04:54;;;;;;;;;;;13.40;99.90;;;;;;8320398;28;20360;-72
2021/10/17 11:09:15;;;;;;;;;;;13.60;99.90;;;;;;8321602;28;19932;-73
2021/10/17 11:13:27;;;;;;;;;;;13.80;99.90;;;;;;8318095;28;19929;-73
2021/10/17 11:17:28;;;;;;;;;;;13.90;99.90;;;;;;8348747;28;19925;-73
2021/10/17 11:21:30;;;;;;;;;;;14.00;99.90;;;;;;8314530;28;19982;-73
2021/10/17 11:25:33;;;;;;;;;;;14.10;99.90;;;;;;8321524;28;19925;-73
2021/10/17 11:29:42;;;;;;;;;;;14.10;99.90;;;;;;8320320;28;19921;-73
2021/10/17 11:33:44;;;;;;;;;;;14.20;99.90;;;;;;8316518;28;20377;-73
2021/10/17 11:37:50;;;;;;;;;;;14.20;99.90;;;;;;8320277;28;20434;-73
2021/10/17 11:41:59;;;;;;;;;;;14.20;99.90;;;;;;8323455;28;19929;-73
2021/10/17 11:46:03;;;;;;;;;;;14.10;99.90;;;;;;8317795;28;19932;-73
2021/10/17 11:50:04;;;;;;;;;;;14.00;99.90;;;;;;8313131;28;20370;-72
2021/10/17 11:54:06;;;;;;;;;;;14.00;99.90;;;;;;8320540;28;19955;-72
2021/10/17 11:58:18;;;;;;;;;;;13.90;99.90;;;;;;8329435;28;19932;-72
2021/10/17 12:02:29;;;;;;;;;;;13.90;99.90;;;;;;8320974;28;19932;-73
2021/10/17 12:06:31;;;;;;;;;;;13.90;99.90;;;;;;8319386;28;19999;-72
2021/10/17 12:10:33;;;;;;;;;;;13.80;99.90;;;;;;8316318;28;19920;-73
2021/10/17 12:14:35;;;;;;;;;;;13.80;99.90;;;;;;8318424;28;19921;-73
2021/10/17 12:18:43;;;;;;;;;;;13.80;99.90;;;;;;8317874;28;19932;-73
2021/10/17 12:22:46;;;;;;;;;;;13.80;99.90;;;;;;8312994;28;19925;-73
2021/10/17 12:26:52;;;;;;;;;;;13.70;99.90;;;;;;8312244;28;19928;-73
2021/10/17 12:30:55;;;;;;;;;;;13.70;99.90;;;;;;8312305;28;20356;-72
2021/10/17 12:34:57;;;;;;;;;;;13.70;99.90;;;;;;8315429;28;19929;-73
2021/10/17 12:39:03;;;;;;;;;;;13.70;99.90;;;;;;8332613;28;19928;-73
2021/10/17 12:43:05;;;;;;;;;;;13.70;99.90;;;;;;8321097;28;19936;-72
2021/10/17 12:47:06;;;;;;;;;;;13.70;99.90;;;;;;8309324;28;19947;-72
2021/10/17 12:51:27;;;;;;;;;;;13.70;99.90;;;;;;8311585;28;19929;-73
2021/10/17 12:55:33;;;;;;;;;;;13.80;99.90;;;;;;8314544;28;20290;-73
2021/10/17 12:59:36;;;;;;;;;;;13.80;99.90;;;;;;8319616;28;19921;-73
2021/10/17 13:03:38;;;;;;;;;;;13.90;99.90;;;;;;8320549;28;19974;-73
2021/10/17 13:07:39;;;;;;;;;;;14.00;99.90;;;;;;8306902;28;19921;-72
2021/10/17 13:11:41;;;;;;;;;;;14.00;99.90;;;;;;8330352;28;19928;-72
2021/10/17 13:15:43;;;;;;;;;;;14.10;99.90;;;;;;8317877;28;20466;-73
2021/10/17 13:19:45;;;;;;;;;;;14.20;99.90;;;;;;8311733;28;19928;-73
2021/10/17 13:23:46;;;;;;;;;;;14.20;99.90;;;;;;8319499;28;20384;-73
2021/10/17 13:27:49;;;;;;;;;;;14.20;99.90;;;;;;8350085;28;19924;-73
2021/10/17 13:31:51;;;;;;;;;;;14.30;99.90;;;;;;8312813;28;19925;-73
2021/10/17 13:35:54;;;;;;;;;;;14.20;99.90;;;;;;8340229;28;22282;-73
2021/10/17 13:39:56;;;;;;;;;;;14.20;99.90;;;;;;8318761;28;19974;-73
2021/10/17 13:43:58;;;;;;;;;;;14.20;99.90;;;;;;8330417;28;20381;-73
2021/10/17 13:48:00;;;;;;;;;;;14.20;99.90;;;;;;8311620;28;19944;-73
2021/10/17 13:52:03;;;;;;;;;;;14.20;99.90;;;;;;8313622;28;19940;-72
2021/10/17 13:56:05;;;;;;;;;;;14.20;99.90;;;;;;8323197;28;19939;-72
2021/10/17 14:00:09;;;;;;;;;;;14.20;99.90;;;;;;8318137;28;19948;-72
2021/10/17 14:04:10;;;;;;;;;;;14.20;99.90;;;;;;8314459;28;19934;-73
2021/10/17 14:08:12;;;;;;;;;;;14.30;99.90;;;;;;8316480;28;20294;-72
2021/10/17 14:12:14;;;;;;;;;;;14.30;99.90;;;;;;8316202;28;19933;-72
2021/10/17 14:16:15;;;;;;;;;;;14.20;99.90;;;;;;8312471;28;19925;-73
2021/10/17 14:20:17;;;;;;;;;;;14.30;99.90;;;;;;8309013;28;19933;-72
2021/10/17 14:24:19;;;;;;;;;;;14.20;99.90;;;;;;8314365;28;19929;-71
2021/10/17 14:28:20;;;;;;;;;;;14.20;99.90;;;;;;8312637;28;19932;-73
2021/10/17 14:32:22;;;;;;;;;;;14.20;99.90;;;;;;8318190;28;19944;-73
2021/10/17 14:36:24;;;;;;;;;;;14.10;99.90;;;;;;8322974;28;19945;-72
2021/10/17 14:40:26;;;;;;;;;;;14.10;99.90;;;;;;8323188;28;19936;-72
2021/10/17 14:44:27;;;;;;;;;;;14.00;99.90;;;;;;8323862;28;19937;-72
2021/10/17 14:48:30;;;;;;;;;;;14.00;99.90;;;;;;8324472;28;19977;-72
2021/10/17 14:52:32;;;;;;;;;;;13.90;99.90;;;;;;8323461;28;20388;-73
2021/10/17 14:56:33;;;;;;;;;;;14.00;99.90;;;;;;8324511;28;19925;-73
2021/10/17 15:00:35;;;;;;;;;;;14.00;99.90;;;;;;8323025;28;20383;-72
2021/10/17 15:04:37;;;;;;;;;;;14.00;99.90;;;;;;8321515;28;19929;-72
2021/10/17 15:08:39;;;;;;;;;;;13.90;99.90;;;;;;8324229;28;19933;-72
2021/10/17 15:12:41;;;;;;;;;;;13.90;99.90;;;;;;8321025;28;20365;-72
2021/10/17 15:16:42;;;;;;;;;;;13.90;99.90;;;;;;8352266;28;19925;-72
2021/10/17 15:20:45;;;;;;;;;;;13.90;99.90;;;;;;8310748;28;19933;-73
2021/10/17 15:24:47;;;;;;;;;;;13.90;99.90;;;;;;8313570;28;20427;-72
2021/10/17 15:28:48;;;;;;;;;;;13.90;99.90;;;;;;8317891;28;19928;-73
2021/10/17 15:32:50;;;;;;;;;;;13.90;99.90;;;;;;8318189;28;19932;-73
2021/10/17 15:36:51;;;;;;;;;;;13.90;99.90;;;;;;8338698;28;19962;-73
2021/10/17 15:40:56;;;;;;;;;;;13.90;99.90;;;;;;8319862;28;19932;-73
2021/10/17 15:44:58;;;;;;;;;;;13.90;99.90;;;;;;8320972;28;19987;-73
2021/10/17 15:49:00;;;;;;;;;;;13.90;99.90;;;;;;8323451;28;20399;-72
2021/10/17 15:53:02;;;;;;;;;;;13.80;99.90;;;;;;8320789;28;19947;-73
2021/10/17 15:57:04;;;;;;;;;;;13.80;99.90;;;;;;8318011;28;19925;-73
2021/10/17 16:01:06;;;;;;;;;;;13.80;99.90;;;;;;8333387;28;19925;-72
2021/10/17 16:05:08;;;;;;;;;;;13.80;99.90;;;;;;8314502;28;19979;-72
2021/10/17 16:09:10;;;;;;;;;;;13.80;99.90;;;;;;8315692;28;20265;-73
2021/10/17 16:13:11;;;;;;;;;;;13.70;99.90;;;;;;8293058;28;20367;-72
2021/10/17 16:17:13;;;;;;;;;;;13.70;99.90;;;;;;8322935;28;20289;-73
2021/10/17 16:21:18;;;;;;;;;;;13.70;99.90;;;;;;8306404;28;19929;-71
2021/10/17 16:25:19;;;;;;;;;;;13.60;99.90;;;;;;8309036;28;19933;-70
2021/10/17 16:29:23;;;;;;;;;;;13.60;99.90;;;;;;8292156;28;19929;-72
2021/10/17 16:33:25;;;;;;;;;;;13.60;99.90;;;;;;8290580;28;19929;-72
2021/10/17 16:37:27;;;;;;;;;;;13.60;99.90;;;;;;8292714;28;19925;-72
2021/10/17 16:41:28;;;;;;;;;;;13.50;99.90;;;;;;8294241;28;19929;-73
2021/10/17 16:45:30;;;;;;;;;;;13.50;99.90;;;;;;8308657;28;19945;-72
2021/10/17 16:49:32;;;;;;;;;;;13.50;99.90;;;;;;8290316;28;19947;-72
2021/10/17 16:53:34;;;;;;;;;;;13.40;99.90;;;;;;8290877;28;20020;-72
2021/10/17 16:57:36;;;;;;;;;;;13.40;99.90;;;;;;8321544;28;19955;-73
2021/10/17 17:01:38;;;;;;;;;;;13.40;99.90;;;;;;8294218;28;19932;-73
2021/10/17 17:05:56;;;;;;;;;;;13.30;99.90;;;;;;8297076;28;19921;-72
2021/10/17 17:09:58;;;;;;;;;;;13.30;99.90;;;;;;8293870;28;19929;-72
2021/10/17 17:13:59;;;;;;;;;;;13.30;99.90;;;;;;8291940;28;19929;-72
2021/10/17 17:18:01;;;;;;;;;;;13.30;99.90;;;;;;8296407;28;19925;-74
2021/10/17 17:22:03;;;;;;;;;;;13.20;99.90;;;;;;8304030;28;19922;-73
2021/10/17 17:26:05;;;;;;;;;;;13.20;99.90;;;;;;8302629;28;19990;-73
2021/10/17 17:30:07;;;;;;;;;;;13.20;99.90;;;;;;8305019;28;20345;-73
2021/10/17 17:34:08;;;;;;;;;;;13.20;99.90;;;;;;8301167;28;19929;-72
2021/10/17 17:38:14;;;;;;;;;;;13.20;99.90;;;;;;8301018;28;19980;-72
2021/10/17 17:42:15;;;;;;;;;;;13.20;99.90;;;;;;8300366;28;19938;-72
2021/10/17 17:46:17;;;;;;;;;;;13.20;99.90;;;;;;8301440;28;19925;-72
2021/10/17 17:50:19;;;;;;;;;;;13.20;99.90;;;;;;8296111;28;19983;-72
2021/10/17 17:54:24;;;;;;;;;;;13.10;99.90;;;;;;8297743;28;19994;-72
2021/10/17 17:58:29;;;;;;;;;;;13.10;99.90;;;;;;8318876;28;19921;-73
2021/10/17 18:02:31;;;;;;;;;;;13.00;99.90;;;;;;8303722;28;20426;-73
2021/10/17 18:06:33;;;;;;;;;;;13.00;99.90;;;;;;8340479;28;19927;-72
2021/10/17 18:10:34;;;;;;;;;;;12.90;99.90;;;;;;8298650;28;19956;-72
2021/10/17 18:14:36;;;;;;;;;;;12.90;99.90;;;;;;8307563;28;19922;-72
2021/10/17 18:18:38;;;;;;;;;;;12.90;99.90;;;;;;8303543;28;19924;-72
2021/10/17 18:22:39;;;;;;;;;;;12.90;99.90;;;;;;8319906;28;19980;-72
2021/10/17 18:26:41;;;;;;;;;;;12.90;99.90;;;;;;8308212;28;19920;-73
2021/10/17 18:30:43;;;;;;;;;;;13.00;99.90;;;;;;8302322;28;19925;-72
2021/10/17 18:34:44;;;;;;;;;;;13.00;99.90;;;;;;8300341;28;20024;-73
2021/10/17 18:38:46;;;;;;;;;;;13.00;99.90;;;;;;8300919;28;19932;-72
2021/10/17 18:42:48;;;;;;;;;;;13.00;99.90;;;;;;8306001;28;20431;-73
2021/10/17 18:46:50;;;;;;;;;;;13.00;99.90;;;;;;8334108;28;19925;-73
2021/10/17 18:50:52;;;;;;;;;;;12.90;99.90;;;;;;8304648;28;19925;-72
2021/10/17 18:54:54;;;;;;;;;;;12.90;99.90;;;;;;8300500;28;19928;-75
2021/10/17 18:58:55;;;;;;;;;;;12.90;99.90;;;;;;8315332;28;19929;-73
2021/10/17 19:03:00;;;;;;;;;;;12.90;99.90;;;;;;8302271;28;20273;-73
2021/10/17 19:07:02;;;;;;;;;;;12.80;99.90;;;;;;8303409;28;20032;-72
2021/10/17 19:11:03;;;;;;;;;;;12.80;99.90;;;;;;8305817;28;19931;-73
2021/10/17 19:15:05;;;;;;;;;;;12.80;99.90;;;;;;8304977;28;19921;-73
2021/10/17 19:19:07;;;;;;;;;;;12.80;99.90;;;;;;8306748;28;24033;-73
2021/10/17 19:23:11;;;;;;;;;;;12.70;99.90;;;;;;8307033;28;19925;-72
2021/10/17 19:27:13;;;;;;;;;;;12.70;99.90;;;;;;8308918;28;19929;-73
2021/10/17 19:31:15;;;;;;;;;;;12.70;99.90;;;;;;8307371;28;19932;-73
2021/10/17 19:35:20;;;;;;;;;;;12.70;99.90;;;;;;8305821;28;20026;-73
2021/10/17 19:39:22;;;;;;;;;;;12.60;99.90;;;;;;8304724;28;20344;-72
2021/10/17 19:43:25;;;;;;;;;;;12.60;99.90;;;;;;8309453;28;20329;-73
2021/10/17 19:47:27;;;;;;;;;;;12.60;99.90;;;;;;8305525;28;20226;-73
2021/10/17 19:51:29;;;;;;;;;;;12.60;99.90;;;;;;8301393;28;19925;-73
2021/10/17 19:55:30;;;;;;;;;;;12.60;99.90;;;;;;8304456;28;19962;-73
2021/10/17 19:59:32;;;;;;;;;;;12.60;99.90;;;;;;8302450;28;19956;-73
2021/10/17 20:03:33;;;;;;;;;;;12.50;99.90;;;;;;8302752;28;19940;-73
2021/10/17 20:07:35;;;;;;;;;;;12.50;99.90;;;;;;8303368;28;19925;-72
2021/10/17 20:11:37;;;;;;;12.75;7.65;;;12.50;99.90;;;;;;8303193;28;20292;-73
2021/10/17 20:15:38;;;;;;;12.50;7.35;;;12.50;99.90;;;;;;8301713;28;20068;-73
2021/10/17 20:19:40;;;;;;;9.82;6.60;;;12.40;99.90;;;;;;8300873;28;20054;-73
2021/10/17 20:23:42;;;;;;;10.73;7.50;;;12.40;99.90;;;;;;8300145;28;20053;-73
2021/10/17 20:27:45;;;;;;;17.08;7.60;;;12.40;99.90;;;;;;8299594;28;20150;-73
2021/10/17 20:31:47;;;;;;;10.45;6.88;;;12.40;99.90;;;;;;8299957;28;20061;-73
2021/10/17 20:36:36;;;;;;;11.38;6.88;;;12.40;99.90;;;;;;8296480;28;24129;-73
2021/10/17 20:40:12;;;;;;;10.15;6.57;;;12.30;99.90;;;;;;8295660;28;20046;-73
2021/10/17 20:44:25;;;;;;;11.23;6.25;;;12.20;99.90;;;;;;8304242;28;20484;-73
2021/10/17 20:48:26;;;;;;;12.63;6.85;;;12.20;99.90;;;;;;8299675;28;20049;-73
2021/10/17 20:52:28;;;;;;;10.63;7.68;;;12.10;99.90;;;;;;8311406;28;20057;-73
2021/10/17 20:56:30;;;;;;;12.77;7.35;;;12.10;99.90;;;;;;8302075;28;20960;-73
2021/10/17 21:00:32;;;;;;;10.52;6.57;;;12.00;99.90;;;;;;8303628;28;20394;-73
2021/10/17 21:04:35;;;;;;;9.90;6.40;;;12.00;99.90;;;;;;8322291;28;20477;-73
2021/10/17 21:08:36;;;;;;;10.30;6.10;;;11.90;99.90;;;;;;8323243;28;20049;-73
2021/10/17 21:12:39;;;;;;;;;;;11.90;99.90;;;;;;8325206;28;20394;-72
2021/10/17 21:16:42;;;;;;;;;;;11.80;99.90;;;;;;8326540;28;19921;-73
2021/10/17 21:20:44;;;;;;;;;;;11.80;99.90;;;;;;8322387;28;20385;-72
2021/10/17 21:24:45;;;;;;;;;;;11.70;99.90;;;;;;8323688;28;20381;-72
2021/10/17 21:28:47;;;;;;;;;;;11.70;99.90;;;;;;8324226;28;19921;-73
2021/10/17 21:32:49;;;;;;;;;;;11.70;99.90;;;;;;8324355;28;20341;-72
2021/10/17 21:36:50;;;;;;;;;;;11.70;99.90;;;;;;8324027;28;20349;-73
2021/10/17 21:40:52;;;;;;;;;;;11.80;99.90;;;;;;8323136;28;19928;-72
2021/10/17 21:44:54;;;;;;;;;;;11.80;99.90;;;;;;8326507;28;19921;-73
2021/10/17 21:48:55;;;;;;;;;;;11.80;99.90;;;;;;8333713;28;20356;-73
2021/10/17 21:52:57;;;;;;;;;;;11.80;99.90;;;;;;8323855;28;19928;-72
2021/10/17 21:56:59;;;;;;;;;;;11.80;99.90;;;;;;8339253;28;19984;-72
2021/10/17 22:01:02;;;;;;;;;;;11.80;99.90;;;;;;8343696;28;20391;-72
2021/10/17 22:05:04;;;;;;;;;;;11.80;99.90;;;;;;8322668;28;19926;-73
2021/10/17 22:09:10;;;;;;;;;;;11.80;99.90;;;;;;8340797;28;20395;-73
2021/10/17 22:13:12;;;;;;;;;;;11.80;99.90;;;;;;8342161;28;19971;-73
2021/10/17 22:17:13;;;;;;;;;;;11.80;99.90;;;;;;8330497;28;20233;-72
2021/10/17 22:21:15;;;;;;;;;;;11.80;99.90;;;;;;8317938;28;19921;-72
2021/10/17 22:25:17;;;;;;;;;;;11.70;99.90;;;;;;8323843;28;19925;-73
2021/10/17 22:29:19;;;;;;;;;;;11.70;99.90;;;;;;8365626;28;20272;-72
2021/10/17 22:33:20;;;;;;;;;;;11.70;99.90;;;;;;8323061;28;19925;-73
2021/10/17 22:37:22;;;;;;;;;;;11.80;99.90;;;;;;8323140;28;20285;-72
2021/10/17 22:41:24;;;;;;;;;;;11.80;99.90;;;;;;8325096;28;19921;-73
2021/10/17 22:45:26;;;;;;;;;;;11.80;99.90;;;;;;8344143;28;20357;-72
2021/10/17 22:49:27;;;;;;;;;;;11.80;99.90;;;;;;8331442;28;19921;-73
2021/10/17 22:53:29;;;;;;;;;;;11.80;99.90;;;;;;8329817;28;19921;-72
2021/10/17 22:57:31;;;;;;;;;;;11.80;99.90;;;;;;8325117;28;19925;-73
2021/10/17 23:01:33;;;;;;;;;;;11.90;99.90;;;;;;8330892;28;20237;-73
2021/10/17 23:05:35;;;;;;;;;;;11.80;99.90;;;;;;8328254;28;20012;-72
2021/10/17 23:09:38;;;;;;;;;;;11.80;99.90;;;;;;8327029;28;19921;-73
2021/10/17 23:13:40;;;;;;;;;;;11.80;99.90;;;;;;8333788;28;20011;-73
2021/10/17 23:17:42;;;;;;;;;;;11.80;99.90;;;;;;8327383;28;19928;-72
2021/10/17 23:21:44;;;;;;;;;;;11.80;99.90;;;;;;8325363;28;19921;-72
2021/10/17 23:25:46;;;;;;;;;;;11.80;99.90;;;;;;8333152;28;19974;-73